Time;durP1;ratioP1;P1;durP2;ratioP2;P2;SDS_P1;SDS_P2;PMS_P1;PMS_P2;Temp;Humidity;BMP_temperature;BMP_pressure;BME280_temperature;BME280_humidity;BME280_pressure;Samples;Min_cycle;Max_cycle;Signal;HPM_P1;HPM_P2
2024/04/04 00:02:26;;;;;;;7.20;3.00;;;;;;;-147.86;100.00;-17609.17;105973;1251;61215;-48
2024/04/04 00:05:02;;;;;;;8.90;3.00;;;;;;;-147.86;100.00;-17609.17;105999;1251;61263;-48
2024/04/04 00:07:30;;;;;;;8.00;2.80;;;;;;;-147.86;100.00;-17609.17;105922;1252;74671;-47
2024/04/04 00:10:00;;;;;;;7.70;3.30;;;;;;;-147.86;100.00;-17609.17;105980;1255;65480;-45
2024/04/04 00:12:28;;;;;;;4.40;3.30;;;;;;;-147.86;100.00;-17609.17;105921;1251;72621;-45
2024/04/04 00:14:55;;;;;;;4.00;2.90;;;;;;;-147.86;100.00;-17609.17;105961;1251;61205;-44
2024/04/04 00:17:22;;;;;;;5.30;3.00;;;;;;;-147.86;100.00;-17609.17;105964;1251;61278;-47
2024/04/04 00:19:49;;;;;;;8.60;3.00;;;;;;;-147.86;100.00;-17609.17;105959;1250;74601;-50
2024/04/04 00:22:16;;;;;;;6.20;2.60;;;;;;;-147.86;100.00;-17609.17;106053;1256;64652;-47
2024/04/04 00:24:43;;;;;;;4.70;2.70;;;;;;;-147.86;100.00;-17609.17;105988;1251;72585;-47
2024/04/04 00:27:10;;;;;;;4.60;2.80;;;;;;;-147.86;100.00;-17609.17;105998;1251;61205;-44
2024/04/04 00:29:43;;;;;;;5.00;2.40;;;;;;;-147.86;100.00;-17609.17;106052;1251;61236;-47
2024/04/04 00:32:10;;;;;;;7.30;2.80;;;;;;;-147.86;100.00;-17609.17;105993;1255;74584;-48
2024/04/04 00:34:37;;;;;;;8.40;2.60;;;;;;;-147.86;100.00;-17609.17;105988;1257;65438;-46
2024/04/04 00:37:06;;;;;;;5.40;2.70;;;;;;;-147.86;100.00;-17609.17;105972;1251;72549;-47
2024/04/04 00:39:33;;;;;;;8.40;2.90;;;;;;;-147.86;100.00;-17609.17;105979;1256;61145;-49
2024/04/04 00:42:00;;;;;;;4.80;2.80;;;;;;;-147.86;100.00;-17609.17;105965;1251;61294;-45
2024/04/04 00:44:27;;;;;;;8.70;2.30;;;;;;;-147.86;100.00;-17609.17;105980;1251;74700;-45
2024/04/04 00:46:54;;;;;;;4.50;2.40;;;;;;;-147.86;100.00;-17609.17;105979;1256;65470;-48
2024/04/04 00:49:21;;;;;;;3.70;2.40;;;;;;;-147.86;100.00;-17609.17;106005;1251;71391;-48
2024/04/04 00:51:48;;;;;;;7.50;3.20;;;;;;;-147.86;100.00;-17609.17;105995;1251;61208;-47
2024/04/04 00:54:15;;;;;;;5.10;2.40;;;;;;;-147.86;100.00;-17609.17;106003;1251;61241;-48
2024/04/04 00:56:42;;;;;;;2.30;2.10;;;;;;;-147.86;100.00;-17609.17;105972;1251;75084;-49
2024/04/04 00:59:13;;;;;;;7.40;2.10;;;;;;;-147.86;100.00;-17609.17;105974;1256;65492;-47
2024/04/04 01:01:43;;;;;;;5.50;2.60;;;;;;;-147.86;100.00;-17609.17;105979;1257;72375;-50
2024/04/04 01:04:10;;;;;;;8.00;2.30;;;;;;;-147.86;100.00;-17609.17;105918;1256;61314;-48
2024/04/04 01:06:38;;;;;;;3.60;2.70;;;;;;;-147.86;100.00;-17609.17;105960;1251;61342;-50
2024/04/04 01:09:04;;;;;;;6.90;2.70;;;;;;;-147.86;100.00;-17608.59;105918;1251;74593;-47
2024/04/04 01:11:31;;;;;;;5.70;2.50;;;;;;;-147.86;100.00;-17212.96;105947;1255;65493;-45
2024/04/04 01:13:58;;;;;;;4.00;2.10;;;;;;;-147.86;100.00;-16571.39;105975;1251;72456;-51
2024/04/04 01:16:25;;;;;;;4.10;2.70;;;;;;;-147.86;100.00;-15534.79;105991;1251;61243;-47
2024/04/04 01:18:52;;;;;;;3.20;2.00;;;;;;;-147.86;100.00;-14152.20;106058;1250;61336;-48
2024/04/04 01:21:18;;;;;;;2.70;2.10;;;;;;;-147.86;100.00;-12917.35;105994;1251;74430;-47
2024/04/04 01:23:45;;;;;;;9.30;2.30;;;;;;;-147.86;100.00;-12867.95;105972;1255;64452;-48
2024/04/04 01:26:14;;;;;;;6.90;2.40;;;;;;;-147.86;100.00;-12571.52;105735;1251;72655;-48
2024/04/04 01:28:41;;;;;;;6.10;2.20;;;;;;;-147.86;100.00;-12225.65;105978;1256;61260;-44
2024/04/04 01:31:08;;;;;;;4.40;2.70;;;;;;;-147.86;100.00;-12867.92;105953;1251;61413;-46
2024/04/04 01:33:35;;;;;;;2.40;2.10;;;;;;;-147.86;100.00;-13806.50;106014;1251;74483;-47
2024/04/04 01:36:02;;;;;;;3.20;2.50;;;;;;;-147.86;100.00;-14152.22;105990;1251;64342;-47
2024/04/04 01:38:29;;;;;;;7.50;2.00;;;;;;;-147.86;100.00;-14596.67;105956;1256;73014;-48
2024/04/04 01:40:57;;;;;;;2.50;2.20;;;;;;;-147.86;100.00;-14744.81;105961;1250;61234;-50
2024/04/04 01:43:24;;;;;;;6.00;2.60;;;;;;;-147.86;100.00;-13855.88;105982;1251;61256;-45
2024/04/04 01:45:50;;;;;;;3.20;2.20;;;;;;;-147.86;100.00;-14596.67;105987;1257;74573;-45
2024/04/04 01:48:17;;;;;;;3.50;2.60;;;;;;;-147.86;100.00;-14892.95;105964;1255;65460;-47
2024/04/04 01:50:45;;;;;;;4.20;2.40;;;;;;;-147.86;100.00;-14695.43;105956;1251;72412;-48
2024/04/04 01:53:11;;;;;;;4.70;2.20;;;;;;;-147.86;100.00;-15386.68;106013;1251;61237;-48
2024/04/04 01:55:38;;;;;;;6.10;2.40;;;;;;;-147.86;100.00;-15386.68;105995;1251;61221;-47
2024/04/04 01:58:05;;;;;;;8.10;2.70;;;;;;;-147.86;100.00;-16373.97;105953;1251;75020;-47
2024/04/04 02:00:32;;;;;;;4.70;2.40;;;;;;;-147.86;100.00;-16620.75;105990;1251;65621;-43
2024/04/04 02:02:59;;;;;;;6.80;2.40;;;;;;;-147.86;100.00;-16867.52;105951;1251;72591;-48
2024/04/04 02:05:26;;;;;;;13.90;2.90;;;;;;;-147.86;100.00;-17509.04;105911;1256;61316;-46
2024/04/04 02:07:53;;;;;;;3.90;2.30;;;;;;;-147.86;100.00;-17609.17;105965;1251;61320;-45
2024/04/04 02:10:20;;;;;;;3.50;2.10;;;;;;;-147.86;100.00;-17609.17;105648;1251;423965;-45
2024/04/04 02:15:14;;;;;;;2.20;2.00;;;;;;;-147.86;100.00;-17460.84;102466;1292;603750;-48
2024/04/04 02:17:41;;;;;;;4.40;2.10;;;;;;;-147.86;100.00;-17609.17;105042;1269;60476;-44
2024/04/04 02:20:12;;;;;;;4.40;2.20;;;;;;;-147.86;100.00;-17609.17;105557;1257;60087;-44
2024/04/04 02:22:39;;;;;;;5.40;2.70;;;;;;;-147.86;100.00;-17609.17;105547;1257;72917;-46
2024/04/04 02:25:07;;;;;;;11.80;2.50;;;;;;;-147.86;100.00;-17609.17;105629;1263;65402;-47
2024/04/04 02:27:35;;;;;;;6.00;2.30;;;;;;;-147.86;100.00;-17609.17;105417;1257;240503;-46
2024/04/04 02:30:02;;;;;;;4.50;3.00;;;;;;;-147.86;100.00;-17609.17;105635;1261;59742;-47
2024/04/04 02:32:30;;;;;;;3.90;2.60;;;;;;;-147.86;100.00;-17609.17;105591;1255;60211;-46
2024/04/04 02:34:57;;;;;;;13.70;2.70;;;;;;;-147.86;100.00;-17609.17;105632;1255;72762;-47
2024/04/04 02:37:25;;;;;;;4.00;2.60;;;;;;;-147.86;100.00;-17609.17;105625;1259;65506;-46
2024/04/04 02:39:52;;;;;;;3.20;2.70;;;;;;;-147.86;100.00;-17609.17;105679;1257;72607;-53
2024/04/04 02:42:19;;;;;;;3.30;2.80;;;;;;;-147.86;100.00;-17609.17;105599;1261;60450;-48
2024/04/04 02:44:47;;;;;;;3.00;2.50;;;;;;;-147.86;100.00;-17609.17;105669;1257;60412;-47
2024/04/04 02:47:14;;;;;;;6.20;3.30;;;;;;;-147.86;100.00;-17609.17;105943;1256;72702;-47
2024/04/04 02:49:41;;;;;;;6.10;2.90;;;;;;;-147.86;100.00;-17609.17;105917;1257;65290;-45
2024/04/04 02:52:08;;;;;;;11.10;3.00;;;;;;;-147.86;100.00;-17609.17;105910;1251;72692;-50
2024/04/04 02:54:35;;;;;;;7.90;3.30;;;;;;;-147.86;100.00;-17609.17;105937;1251;60425;-48
2024/04/04 02:57:02;;;;;;;9.40;3.00;;;;;;;-147.86;100.00;-17609.17;105896;1254;60408;-47
2024/04/04 02:59:29;;;;;;;12.00;3.20;;;;;;;-147.86;100.00;-17609.17;105928;1257;74260;-46
2024/04/04 03:01:56;;;;;;;9.00;3.00;;;;;;;-147.86;100.00;-17609.17;105748;1253;65349;-50
2024/04/04 03:04:24;;;;;;;5.50;3.50;;;;;;;-147.86;100.00;-17609.17;105763;1254;72436;-49
2024/04/04 03:06:51;;;;;;;10.20;3.30;;;;;;;-147.86;100.00;-17609.17;105952;1257;60430;-45
2024/04/04 03:09:18;;;;;;;6.00;3.10;;;;;;;-147.86;100.00;-17609.17;106005;1256;60418;-47
2024/04/04 03:11:45;;;;;;;3.60;2.80;;;;;;;-147.86;100.00;-17609.17;105983;1257;73845;-47
2024/04/04 03:14:12;;;;;;;6.70;2.90;;;;;;;-147.86;100.00;-17609.17;105927;1257;65448;-44
2024/04/04 03:16:39;;;;;;;6.50;2.80;;;;;;;-147.86;100.00;-17609.17;105887;1253;72739;-47
2024/04/04 03:19:06;;;;;;;5.00;3.10;;;;;;;-147.86;100.00;-17609.17;105886;1256;60428;-48
2024/04/04 03:21:33;;;;;;;7.40;2.70;;;;;;;-147.86;100.00;-17609.17;105920;1254;60441;-48
2024/04/04 03:23:59;;;;;;;10.30;2.70;;;;;;;-147.86;100.00;-17609.17;105992;1254;72574;-46
2024/04/04 03:26:26;;;;;;;6.00;2.60;;;;;;;-147.86;100.00;-17609.17;105906;1256;65346;-47
2024/04/04 03:28:53;;;;;;;4.30;2.40;;;;;;;-147.86;100.00;-17609.17;105909;1253;72459;-44
2024/04/04 03:31:21;;;;;;;4.10;2.70;;;;;;;-147.86;100.00;-17608.30;105885;1257;61212;-47
2024/04/04 03:33:50;;;;;;;4.30;2.10;;;;;;;-147.86;100.00;-17361.00;105916;1254;60444;-47
2024/04/04 03:36:17;;;;;;;5.00;2.30;;;;;;;-147.86;100.00;-17212.96;105971;1257;73565;-48
2024/04/04 03:38:44;;;;;;;3.90;2.00;;;;;;;-147.86;100.00;-16670.10;105947;1252;65300;-48
2024/04/04 03:41:11;;;;;;;2.60;1.90;;;;;;;-147.86;100.00;-15732.26;105873;1254;72432;-44
2024/04/04 03:43:38;;;;;;;4.00;2.40;;;;;;;-147.86;100.00;-14744.81;105860;1256;60334;-49
2024/04/04 03:46:06;;;;;;;2.70;1.90;;;;;;;-147.86;100.00;-14300.38;105879;1257;60508;-47
2024/04/04 03:48:35;;;;;;;6.40;2.30;;;;;;;-147.86;100.00;-14646.05;105634;1252;73721;-47
2024/04/04 03:51:03;;;;;;;3.70;2.30;;;;;;;-147.86;100.00;-14744.81;105733;1256;63621;-47
2024/04/04 03:53:30;;;;;;;4.40;1.90;;;;;;;-147.86;100.00;-14300.38;105730;1256;72421;-44
2024/04/04 03:55:56;;;;;;;2.00;1.80;;;;;;;-147.86;100.00;-14547.28;105927;1256;60354;-48
2024/04/04 03:58:26;;;;;;;5.80;2.20;;;;;;;-147.86;100.00;-15287.94;105857;1253;60533;-53
2024/04/04 04:00:52;;;;;;;4.60;2.30;;;;;;;-147.86;100.00;-15090.45;105906;1255;73849;-47
2024/04/04 04:03:21;;;;;;;5.40;2.00;;;;;;;-147.86;100.00;-14744.81;105928;1254;62958;-48
2024/04/04 04:05:48;;;;;;;6.60;2.50;;;;;;;-147.86;100.00;-14497.91;105960;1253;72355;-49
2024/04/04 04:08:15;;;;;;;5.40;2.10;;;;;;;-147.86;100.00;-13460.72;105913;1256;60409;-48
2024/04/04 04:10:42;;;;;;;6.80;2.30;;;;;;;-147.86;100.00;-11830.33;105961;1254;60473;-47
2024/04/04 04:13:09;;;;;;;5.40;2.10;;;;;;;-147.86;100.00;-10841.88;105983;1253;72855;-52
2024/04/04 04:15:36;;;;;;;5.60;1.90;;;;;;;-147.86;100.00;-9754.28;105901;1257;64697;-49
2024/04/04 04:18:04;;;;;;;5.90;2.00;;;;;;;-147.86;99.37;-5350.89;105937;1254;72439;-49
2024/04/04 04:23:16;;;;;;;8.00;2.10;;;;;;;-147.86;96.44;9428.28;105718;1254;60527;-46
2024/04/04 04:25:43;;;;;;;5.70;2.30;;;;;;;-147.86;95.21;16490.99;105856;1253;73558;-48
2024/04/04 04:28:10;;;;;;;6.10;2.20;;;;;;;-147.86;93.74;24571.35;105907;1254;64486;-49
2024/04/04 04:30:37;;;;;;;9.70;2.30;;;;;;;-147.86;91.31;35352.96;105895;1254;72584;-49
2024/04/04 04:33:04;;;;;;;5.50;2.50;;;;;;;-147.86;89.38;40776.11;105867;1254;62922;-48
2024/04/04 04:35:31;;;;;;;2.10;1.90;;;;;;;-147.86;89.31;42396.53;105907;1254;60462;-49
2024/04/04 04:37:58;;;;;;;7.00;2.50;;;;;;;-147.86;87.60;43702.77;105877;1256;73727;-47
2024/04/04 04:40:25;;;;;;;4.90;2.20;;;;;;;-147.86;86.68;44495.89;105924;1257;65423;-46
2024/04/04 04:42:52;;;;;;;2.70;2.10;;;;;;;-147.86;84.71;45099.94;105898;1253;72715;-46
2024/04/04 04:45:20;;;;;;;28.40;3.10;;;;;;;-147.86;83.17;45525.03;105880;1256;60342;-48
2024/04/04 04:47:47;;;;;;;6.00;2.20;;;;;;;-147.86;81.48;45877.66;105953;1253;60454;-49
2024/04/04 04:50:14;;;;;;;14.60;2.50;;;;;;;-147.86;79.93;46130.80;105953;1252;73630;-47
2024/04/04 04:52:41;;;;;;;13.20;2.10;;;;;;;-147.86;80.51;46304.01;105830;1257;64508;-47
2024/04/04 04:55:08;;;;;;;8.00;2.30;;;;;;;-147.86;80.36;46407.86;105850;1257;72438;-47
2024/04/04 04:57:35;;;;;;;5.10;2.70;;;;;;;-147.86;78.37;46514.86;105902;1256;60349;-45
2024/04/04 05:00:02;;;;;;;4.30;1.90;;;;;;;-147.86;76.77;46650.85;105883;1254;60434;-48
2024/04/04 05:02:31;;;;;;;2.20;1.90;;;;;;;-147.86;77.91;46750.39;105700;1254;72330;-45
2024/04/04 05:05:11;;;;;;;3.90;2.20;;;;;;;-147.86;77.07;46989.48;105929;1256;64298;-48
2024/04/04 05:07:39;;;;;;;8.70;2.10;;;;;;;-147.86;77.59;47125.88;105911;1254;71353;-49
2024/04/04 05:10:06;;;;;;;4.90;1.80;;;;;;;-147.86;75.83;47199.96;105899;1257;60770;-47
2024/04/04 05:12:34;;;;;;;2.70;2.10;;;;;;;-147.86;75.72;47273.26;105881;1254;60463;-47
2024/04/04 05:15:01;;;;;;;2.10;1.80;;;;;;;-147.86;75.18;47336.77;105976;1254;73848;-48
2024/04/04 05:17:28;;;;;;;4.80;2.70;;;;;;;-147.86;70.90;47404.97;105896;1257;65460;-47
2024/04/04 05:19:54;;;;;;;4.00;2.00;;;;;;;-147.86;70.47;47456.32;105878;1254;72581;-45
2024/04/04 05:22:21;;;;;;;3.20;1.80;;;;;;;-147.86;70.04;47518.26;105935;1253;60346;-48
2024/04/04 05:24:49;;;;;;;4.90;2.30;;;;;;;-147.86;68.55;47569.21;105917;1253;60459;-48
2024/04/04 05:27:15;;;;;;;12.10;2.50;;;;;;;-147.86;70.72;47603.72;105901;1252;74978;-46
2024/04/04 05:29:43;;;;;;;12.10;2.50;;;;;;;-147.86;71.91;47637.43;105914;1257;64369;-48
2024/04/04 05:32:09;;;;;;;8.30;2.20;;;;;;;-147.86;71.87;47659.38;105936;1254;71161;-47
2024/04/04 05:34:36;;;;;;;2.90;2.30;;;;;;;-147.86;72.49;47691.52;105860;1256;60363;-51
2024/04/04 05:37:03;;;;;;;3.80;2.10;;;;;;;-147.86;71.22;47697.02;105875;1253;60620;-47
2024/04/04 05:39:30;;;;;;;8.00;2.90;;;;;;;-147.86;69.99;47726.41;105903;1253;73780;-51
2024/04/04 05:41:57;;;;;;;6.90;2.50;;;;;;;-147.86;70.05;47748.77;105912;1256;65237;-48
2024/04/04 05:44:24;;;;;;;9.00;2.70;;;;;;;-147.86;69.69;47755.43;105849;1254;72600;-47
2024/04/04 05:46:50;;;;;;;3.50;2.30;;;;;;;-147.86;68.94;47776.20;105912;1256;60332;-48
2024/04/04 05:49:17;;;;;;;6.80;2.50;;;;;;;-147.86;70.48;47786.01;105943;1253;60444;-48
2024/04/04 05:51:44;;;;;;;6.10;2.70;;;;;;;-147.86;69.78;47798.95;105980;1253;74007;-48
2024/04/04 05:54:11;;;;;;;6.70;2.50;;;;;;;-147.86;67.36;47822.86;105929;1256;65490;-48
2024/04/04 05:56:38;;;;;;;3.90;2.30;;;;;;;-147.86;65.15;47827.96;105859;1257;72455;-44
2024/04/04 05:59:05;;;;;;;3.00;2.50;;;;;;;-147.86;66.48;47853.44;105890;1257;60419;-47
2024/04/04 06:01:32;;;;;;;25.60;2.70;;;;;;;-147.86;67.65;47886.37;106002;1254;60446;-48
2024/04/04 06:03:59;;;;;;;5.40;2.60;;;;;;;-147.86;65.61;47892.64;105884;1252;73864;-47
2024/04/04 06:06:25;;;;;;;8.60;2.60;;;;;;;-147.86;63.56;47907.14;105910;1257;66951;-44
2024/04/04 06:08:52;;;;;;;27.30;2.90;;;;;;;-147.86;61.99;47935.77;105891;1253;72623;-52
2024/04/04 06:11:20;;;;;;;6.50;2.40;;;;;;;-147.86;63.29;47969.48;105962;1256;61496;-45
2024/04/04 06:13:47;;;;;;;8.50;2.40;;;;;;;-147.86;60.99;47989.48;105916;1253;61358;-49
2024/04/04 06:16:13;;;;;;;4.70;2.30;;;;;;;-147.86;59.96;48014.96;105900;1255;75145;-50
2024/04/04 06:18:40;;;;;;;2.80;1.90;;;;;;;-147.86;59.35;48035.74;105986;1256;65645;-45
2024/04/04 06:21:07;;;;;;;14.00;2.50;;;;;;;-147.86;56.81;48065.93;105886;1254;72542;-49
2024/04/04 06:23:34;;;;;;;26.90;3.40;;;;;;;-147.86;53.55;48065.53;105916;1256;61174;-46
2024/04/04 06:26:01;;;;;;;10.50;2.20;;;;;;;-147.86;51.31;48051.02;105897;1254;61506;-50
2024/04/04 06:28:28;;;;;;;8.00;2.50;;;;;;;-147.86;51.22;48032.21;105881;1256;76014;-53
2024/04/04 06:30:55;;;;;;;5.80;1.70;;;;;;;-147.86;50.46;48007.12;105936;1256;65468;-52
2024/04/04 06:33:22;;;;;;;7.50;2.10;;;;;;;-147.86;50.77;48027.90;105961;1257;72670;-50
2024/04/04 06:35:48;;;;;;;6.10;2.40;;;;;;;-147.86;48.78;48003.20;105695;1253;61233;-46
2024/04/04 06:38:16;;;;;;;3.40;2.10;;;;;;;-147.86;50.33;47996.54;105704;1254;61556;-48
2024/04/04 06:40:43;;;;;;;4.80;2.40;;;;;;;-147.86;48.51;47993.79;105839;1254;76017;-51
2024/04/04 06:43:10;;;;;;;8.00;2.60;;;;;;;-147.86;48.19;47977.71;105914;1256;66937;-52
2024/04/04 06:45:37;;;;;;;6.20;2.50;;;;;;;-147.86;47.54;47954.98;105921;1254;73781;-46
2024/04/04 06:48:05;;;;;;;11.30;3.20;;;;;;;-147.86;47.94;47968.70;105971;1256;61698;-48
2024/04/04 06:50:33;;;;;;;10.10;3.00;;;;;;;-147.86;47.46;47957.72;105910;1253;61263;-47
2024/04/04 06:53:01;;;;;;;10.70;3.00;;;;;;;-147.86;48.31;47962.04;105917;1254;72623;-47
2024/04/04 06:55:28;;;;;;;7.90;3.40;;;;;;;-147.86;48.33;47981.63;105913;1256;66044;-46
2024/04/04 06:57:55;;;;;;;11.80;4.00;;;;;;;-147.86;47.64;47986.73;105911;1254;73049;-49
2024/04/04 07:00:22;;;;;;;13.90;4.40;;;;;;;-147.86;46.71;47970.66;105859;1256;61161;-52
2024/04/04 07:02:49;;;;;;;7.00;3.60;;;;;;;-147.86;45.64;47980.46;105902;1254;61453;-48
2024/04/04 07:05:16;;;;;;;7.30;3.20;;;;;;;-147.86;43.85;47963.99;105940;1254;76033;-48
2024/04/04 07:07:44;;;;;;;8.30;2.90;;;;;;;-147.86;44.04;47947.52;106046;1252;64854;-48
2024/04/04 07:10:11;;;;;;;3.30;2.40;;;;;;;-147.86;43.96;47942.43;105960;1256;73885;-48
2024/04/04 07:12:38;;;;;;;8.40;2.20;;;;;;;-147.86;43.70;47939.68;105900;1256;61535;-45
2024/04/04 07:15:07;;;;;;;3.60;1.70;;;;;;;-147.86;43.58;47952.62;105914;1254;61241;-46
2024/04/04 07:17:34;;;;;;;12.50;1.80;;;;;;;-147.86;42.27;47937.33;105913;1254;76022;-47
2024/04/04 07:20:01;;;;;;;4.60;1.60;;;;;;;-147.86;41.83;47915.38;105885;1252;65189;-51
2024/04/04 07:22:28;;;;;;;8.10;1.40;;;;;;;-147.86;42.01;47889.89;105923;1253;73874;-46
2024/04/04 07:24:55;;;;;;;13.00;1.90;;;;;;;-147.86;42.36;47881.27;105879;1254;61449;-47
2024/04/04 07:27:22;;;;;;;6.40;1.70;;;;;;;-147.86;43.51;47888.72;105911;1252;61531;-48
2024/04/04 07:29:49;;;;;;;16.80;1.90;;;;;;;-147.86;43.26;47893.81;105861;1254;76055;-45
2024/04/04 07:32:15;;;;;;;7.40;1.70;;;;;;;-147.86;43.15;47897.35;105885;1256;66628;-47
2024/04/04 07:34:43;;;;;;;73.60;3.70;;;;;;;-147.86;42.10;47919.69;105902;1254;73799;-46
2024/04/04 07:37:09;;;;;;;31.60;2.40;;;;;;;-147.86;41.79;47909.89;105923;1256;61387;-46
2024/04/04 07:39:36;;;;;;;7.50;1.20;;;;;;;-147.86;42.27;47946.74;105947;1254;61426;-50
2024/04/04 07:42:04;;;;;;;14.50;1.90;;;;;;;-147.86;41.45;47976.15;105908;1257;74991;-48
2024/04/04 07:44:31;;;;;;;40.40;3.30;;;;;;;-147.86;40.79;47975.75;105942;1257;66091;-49
2024/04/04 07:46:58;;;;;;;43.20;3.10;;;;;;;-147.86;39.95;47976.14;105897;1252;73788;-47
2024/04/04 07:49:25;;;;;;;46.30;3.30;;;;;;;-147.86;39.34;47956.93;105898;1256;61515;-51
2024/04/04 07:51:52;;;;;;;79.40;3.90;;;;;;;-147.86;39.48;47939.68;105902;1254;61400;-51
2024/04/04 07:54:19;;;;;;;38.80;3.10;;;;;;;-147.86;38.57;47916.55;105910;1256;76031;-51
2024/04/04 07:56:46;;;;;;;28.30;2.50;;;;;;;-147.86;38.66;47892.25;105915;1256;66615;-48
2024/04/04 07:59:13;;;;;;;31.70;3.60;;;;;;;-147.86;39.35;47878.14;105936;1256;74044;-51
2024/04/04 08:01:40;;;;;;;38.50;3.30;;;;;;;-147.86;39.11;47884.79;105905;1256;61508;-47
2024/04/04 08:04:08;;;;;;;16.10;2.30;;;;;;;-147.86;39.18;47875.00;105945;1254;61449;-50
2024/04/04 08:06:35;;;;;;;23.10;2.30;;;;;;;-147.86;39.10;47876.57;105909;1255;76028;-48
2024/04/04 08:09:03;;;;;;;11.70;2.50;;;;;;;-147.86;39.02;47882.84;105921;1254;65825;-48
2024/04/04 08:11:30;;;;;;;3.40;1.80;;;;;;;-147.86;39.01;47874.21;105886;1254;72822;-50
2024/04/04 08:13:57;;;;;;;19.90;2.40;;;;;;;-147.86;38.89;47883.63;105874;1254;61753;-48
2024/04/04 08:16:23;;;;;;;6.40;1.90;;;;;;;-147.86;39.07;47890.29;105855;1254;61622;-45
2024/04/04 08:18:51;;;;;;;9.00;2.20;;;;;;;-147.86;38.85;47870.69;105871;1256;74930;-45
2024/04/04 08:21:17;;;;;;;4.20;1.40;;;;;;;-147.86;38.31;47865.20;105946;1257;65030;-47
2024/04/04 08:23:44;;;;;;;7.20;1.40;;;;;;;-147.86;38.75;47854.22;105890;1254;73950;-48
2024/04/04 08:26:12;;;;;;;11.00;1.70;;;;;;;-147.86;38.70;47845.21;105922;1254;61658;-47
2024/04/04 08:28:39;;;;;;;9.20;1.40;;;;;;;-147.86;39.32;47838.93;105935;1253;61205;-50
2024/04/04 08:31:07;;;;;;;13.80;1.60;;;;;;;-147.86;39.56;47851.09;105964;1253;75129;-50
2024/04/04 08:33:35;;;;;;;3.00;1.20;;;;;;;-147.86;39.89;47876.57;105887;1256;66881;-47
2024/04/04 08:36:03;;;;;;;4.30;1.00;;;;;;;-147.86;41.01;47902.05;105901;1254;72771;-48
2024/04/04 08:38:30;;;;;;;3.70;1.20;;;;;;;-147.86;39.51;47899.70;105900;1253;61339;-47
2024/04/04 08:41:05;;;;;;;3.80;1.30;;;;;;;-147.86;39.01;47888.32;105897;1253;61468;-47
2024/04/04 08:43:34;;;;;;;1.80;1.00;;;;;;;-147.86;39.67;47871.86;105875;1256;74980;-50
2024/04/04 08:46:02;;;;;;;17.90;1.40;;;;;;;-147.86;40.02;47876.18;105935;1256;66361;-51
2024/04/04 08:48:29;;;;;;;2.70;1.10;;;;;;;-147.86;39.22;47858.54;105926;1256;72861;-51
2024/04/04 08:50:56;;;;;;;9.10;1.40;;;;;;;-147.86;40.83;47888.32;105866;1253;61525;-49
2024/04/04 08:53:23;;;;;;;9.50;1.40;;;;;;;-147.86;41.18;47899.30;105915;1254;61384;-48
2024/04/04 08:55:51;;;;;;;4.40;1.90;;;;;;;-147.86;40.91;47941.25;105891;1252;75975;-49
2024/04/04 08:58:18;;;;;;;2.50;1.00;;;;;;;-147.86;40.28;47935.77;105892;1256;67245;-48
2024/04/04 09:00:46;;;;;;;3.70;1.10;;;;;;;-147.86;39.41;47947.91;105908;1256;73964;-50
2024/04/04 09:03:13;;;;;;;1.90;1.30;;;;;;;-147.86;39.75;47933.02;105928;1253;61326;-50
2024/04/04 09:05:44;;;;;;;2.50;1.60;;;;;;;-147.86;40.26;47937.72;105905;1254;61650;-48
2024/04/04 09:08:12;;;;;;;5.10;1.30;;;;;;;-147.86;40.29;47937.72;105940;1253;74968;-50
2024/04/04 09:10:40;;;;;;;5.00;1.60;;;;;;;-147.86;39.75;47923.21;105891;1256;65933;-51
2024/04/04 09:13:07;;;;;;;7.50;1.50;;;;;;;-147.86;39.16;47918.51;105914;1254;74057;-55
2024/04/04 09:15:36;;;;;;;4.40;1.60;;;;;;;-147.86;40.29;47913.02;105900;1256;61541;-46
2024/04/04 09:18:06;;;;;;;6.30;1.50;;;;;;;-147.86;40.56;47916.95;105942;1256;61133;-46
2024/04/04 09:20:38;;;;;;;11.30;1.50;;;;;;;-147.86;40.30;47962.43;105920;1256;75902;-50
2024/04/04 09:23:09;;;;;;;10.80;1.70;;;;;;;-147.86;39.52;47939.68;105688;1256;64808;-50
2024/04/04 09:25:37;;;;;;;2.30;1.40;;;;;;;-147.86;40.21;47941.25;105616;1254;72709;-47
2024/04/04 09:28:04;;;;;;;9.50;1.70;;;;;;;-147.86;39.72;47971.84;105677;1256;61421;-48
2024/04/04 09:30:32;;;;;;;7.10;1.80;;;;;;;-147.86;38.93;47978.50;105930;1253;61600;-52
2024/04/04 09:32:59;;;;;;;9.80;2.10;;;;;;;-147.86;39.12;47978.89;105898;1252;75930;-55
2024/04/04 09:35:26;;;;;;;12.00;2.50;;;;;;;-147.86;38.96;47993.40;105932;1256;66669;-53
2024/04/04 09:37:53;;;;;;;11.70;2.90;;;;;;;-147.86;38.99;47994.57;105771;1254;73928;-49
2024/04/04 09:40:20;;;;;;;7.60;3.70;;;;;;;-147.86;38.11;47986.34;105740;1258;61364;-47
2024/04/04 09:42:47;;;;;;;10.10;4.50;;;;;;;-147.86;38.55;47974.57;105946;1253;61660;-53
2024/04/04 09:45:15;;;;;;;22.80;5.40;;;;;;;-147.86;38.60;47967.91;105945;1256;75938;-48
2024/04/04 09:47:46;;;;;;;9.40;6.10;;;;;;;-147.86;38.96;47949.88;105713;1254;66427;-48
2024/04/04 09:50:19;;;;;;;16.00;6.30;;;;;;;-147.86;39.70;47949.48;105958;1254;72811;-49
2024/04/04 09:52:48;;;;;;;17.50;7.80;;;;;;;-147.86;39.61;47933.41;105880;1254;61485;-53
2024/04/04 09:55:17;;;;;;;18.10;7.80;;;;;;;-147.86;39.05;47934.98;105971;1256;61563;-48
2024/04/04 09:57:44;;;;;;;21.90;9.00;;;;;;;-147.86;40.19;47925.57;105965;1256;76036;-53
2024/04/04 10:00:17;;;;;;;13.50;5.80;;;;;;;-147.86;40.06;47887.54;105684;1256;66203;-50
2024/04/04 10:02:55;;;;;;;29.00;5.80;;;;;;;-147.86;39.53;47876.57;105738;1254;73831;-51
2024/04/04 10:05:31;;;;;;;20.00;5.90;;;;;;;-147.86;40.97;47841.68;105956;1256;61775;-50
2024/04/04 10:08:12;;;;;;;11.30;5.20;;;;;;;-147.86;41.69;47820.51;105937;1253;61448;-51
2024/04/04 10:10:41;;;;;;;15.10;5.10;;;;;;;-147.86;43.41;47806.78;105923;1256;75891;-52
2024/04/04 10:13:09;;;;;;;10.60;5.70;;;;;;;-147.86;43.18;47797.77;105882;1256;65969;-52
2024/04/04 10:15:44;;;;;;;10.80;5.70;;;;;;;-147.86;44.44;47779.73;105905;1254;74136;-48
2024/04/04 10:18:11;;;;;;;6.30;4.20;;;;;;;-147.86;46.73;47825.21;105901;1256;61099;-51
2024/04/04 10:20:39;;;;;;;9.50;3.20;;;;;;;-147.86;44.75;47823.25;105922;1254;61259;-48
2024/04/04 10:23:07;;;;;;;10.40;2.90;;;;;;;-147.86;43.64;47809.14;105890;1254;74841;-50
2024/04/04 10:25:35;;;;;;;10.40;2.50;;;;;;;-147.86;44.00;47796.59;105862;1256;64842;-48
2024/04/04 10:28:09;;;;;;;8.30;2.30;;;;;;;-147.86;45.23;47816.59;105701;1254;73914;-51
2024/04/04 10:30:40;;;;;;;5.50;2.10;;;;;;;-147.86;45.17;47814.63;105726;1254;61597;-50
2024/04/04 10:33:08;;;;;;;3.10;1.50;;;;;;;-147.86;45.23;47853.44;105870;1257;61475;-50
2024/04/04 10:35:36;;;;;;;13.30;1.80;;;;;;;-147.86;44.25;47828.34;105891;1252;73481;-53
2024/04/04 10:38:11;;;;;;;7.10;1.80;;;;;;;-147.86;44.56;47825.60;105890;1254;65998;-44
2024/04/04 10:40:38;;;;;;;3.30;1.70;;;;;;;-147.86;44.36;47826.38;105901;1254;73944;-51
2024/04/04 10:43:07;;;;;;;13.90;2.60;;;;;;;-147.86;45.00;47836.97;105933;1256;61878;-49
2024/04/04 10:45:36;;;;;;;18.80;2.50;;;;;;;-147.86;43.50;47840.89;105907;1254;61212;-49
2024/04/04 10:48:03;;;;;;;3.40;1.80;;;;;;;-147.86;42.45;47834.23;105855;1254;73627;-49
2024/04/04 10:50:31;;;;;;;9.10;1.90;;;;;;;-147.86;42.69;47830.70;105911;1256;65960;-52
2024/04/04 10:52:59;;;;;;;6.20;2.10;;;;;;;-147.86;42.53;47830.30;105873;1254;73056;-50
2024/04/04 10:55:26;;;;;;;9.00;1.70;;;;;;;-147.86;42.37;47850.30;105873;1254;61577;-50
2024/04/04 10:57:53;;;;;;;4.10;1.70;;;;;;;-147.86;41.96;47845.99;105885;1254;61312;-50
2024/04/04 11:00:22;;;;;;;10.40;2.10;;;;;;;-147.86;42.32;47845.20;105868;1254;75998;-51
2024/04/04 11:02:50;;;;;;;2.60;1.60;;;;;;;-147.86;41.78;47862.06;105931;1254;66265;-47
2024/04/04 11:05:17;;;;;;;5.10;1.80;;;;;;;-147.86;41.18;47857.36;105912;1254;73693;-51
2024/04/04 11:07:45;;;;;;;2.10;1.30;;;;;;;-147.86;40.72;47860.49;105926;1257;61677;-47
2024/04/04 11:10:13;;;;;;;10.40;1.70;;;;;;;-147.86;40.81;47853.43;105911;1256;61227;-52